Time;durP1;ratioP1;P1;durP2;ratioP2;P2;SDS_P1;SDS_P2;PMS_P1;PMS_P2;Temp;Humidity;BMP_temperature;BMP_pressure;BME280_temperature;BME280_humidity;BME280_pressure;Samples;Min_cycle;Max_cycle;Signal;HPM_P1;HPM_P2
2022/04/23 00:00:08;;;;;;;16.83;11.13;;;12.10;99.90;;;;;;5095261;28;20205;-73
2022/04/23 00:02:33;;;;;;;16.05;10.73;;;12.10;99.90;;;;;;5113977;28;20074;-73
2022/04/23 00:04:59;;;;;;;16.98;10.90;;;12.00;99.90;;;;;;5113870;28;20499;-73
2022/04/23 00:07:24;;;;;;;17.35;10.85;;;12.00;99.90;;;;;;5113635;28;20040;-73
2022/04/23 00:09:50;;;;;;;17.50;12.02;;;12.00;99.90;;;;;;5113722;28;20044;-75
2022/04/23 00:12:15;;;;;;;17.08;11.52;;;11.90;99.90;;;;;;5113761;28;20453;-73
2022/04/23 00:14:42;;;;;;;17.63;11.55;;;11.90;99.90;;;;;;5113724;28;20495;-73
2022/04/23 00:17:09;;;;;;;17.60;11.95;;;11.90;99.90;;;;;;5095147;28;20057;-73
2022/04/23 00:19:35;;;;;;;15.60;11.27;;;11.90;99.90;;;;;;5095189;28;20051;-74
2022/04/23 00:22:01;;;;;;;16.80;10.88;;;11.80;99.90;;;;;;5095225;28;20051;-73
2022/04/23 00:24:26;;;;;;;18.60;12.00;;;11.80;99.90;;;;;;5095115;28;20048;-73
2022/04/23 00:26:52;;;;;;;16.13;10.98;;;11.80;99.90;;;;;;5113325;28;20039;-73
2022/04/23 00:29:17;;;;;;;15.38;11.63;;;11.80;99.90;;;;;;5112507;28;20050;-73
2022/04/23 00:31:43;;;;;;;17.83;11.80;;;11.80;99.90;;;;;;5113216;28;20047;-74
2022/04/23 00:34:09;;;;;;;18.67;11.93;;;11.70;99.90;;;;;;5095066;28;20039;-75
2022/04/23 00:36:34;;;;;;;18.05;11.75;;;11.70;99.90;;;;;;5094951;28;20031;-73
2022/04/23 00:39:00;;;;;;;19.75;11.82;;;11.70;99.90;;;;;;5094854;28;20042;-73
2022/04/23 00:41:45;;;;;;;17.77;11.73;;;11.70;99.90;;;;;;5094887;28;20195;-73
2022/04/23 00:44:11;;;;;;;14.32;10.75;;;11.70;99.90;;;;;;5094757;28;20047;-74
2022/04/23 00:46:36;;;;;;;17.40;12.23;;;11.60;99.90;;;;;;5094993;28;20048;-73
2022/04/23 00:49:06;;;;;;;17.83;11.93;;;11.60;99.90;;;;;;5113173;28;20046;-73
2022/04/23 00:51:32;;;;;;;20.60;13.07;;;11.60;99.90;;;;;;5113185;28;20042;-74
2022/04/23 00:54:01;;;;;;;22.60;12.20;;;11.60;99.90;;;;;;5094763;28;20063;-73
2022/04/23 00:56:27;;;;;;;18.67;11.23;;;11.60;99.90;;;;;;5094853;28;20064;-73
2022/04/23 00:58:53;;;;;;;19.95;12.77;;;11.50;99.90;;;;;;5096027;28;20123;-73
2022/04/23 01:01:23;;;;;;;17.98;12.50;;;11.50;99.90;;;;;;5114203;28;20138;-74
2022/04/23 01:03:49;;;;;;;18.13;12.13;;;11.60;99.90;;;;;;5096014;28;20063;-74
2022/04/23 01:06:16;;;;;;;16.27;11.75;;;11.50;99.90;;;;;;5096178;28;20071;-73
2022/04/23 01:08:42;;;;;;;20.15;12.30;;;11.50;99.90;;;;;;5095193;28;20071;-75
2022/04/23 01:11:07;;;;;;;17.33;12.48;;;11.50;99.90;;;;;;5112660;28;20180;-73
2022/04/23 01:13:33;;;;;;;17.02;12.27;;;11.40;99.90;;;;;;5114408;28;20484;-73
2022/04/23 01:16:07;;;;;;;15.73;11.63;;;11.50;99.90;;;;;;5114146;28;20088;-73
2022/04/23 01:18:34;;;;;;;17.30;12.82;;;11.50;99.90;;;;;;5112996;28;20160;-73
2022/04/23 01:21:04;;;;;;;21.75;13.48;;;11.40;99.90;;;;;;5094127;28;20036;-75
2022/04/23 01:23:30;;;;;;;17.98;11.98;;;11.40;99.90;;;;;;5112404;28;20075;-73
2022/04/23 01:25:57;;;;;;;17.20;12.63;;;11.40;99.90;;;;;;5112170;28;20047;-74
2022/04/23 01:28:24;;;;;;;20.42;12.43;;;11.30;99.90;;;;;;5093769;28;20043;-74
2022/04/23 01:30:50;;;;;;;19.63;13.25;;;11.30;99.90;;;;;;5093809;28;20097;-73
2022/04/23 01:33:16;;;;;;;17.83;12.88;;;11.30;99.90;;;;;;5093843;28;20036;-75
2022/04/23 01:35:44;;;;;;;21.02;12.70;;;11.20;99.90;;;;;;5093594;28;20062;-73
2022/04/23 01:38:10;;;;;;;17.73;13.60;;;11.20;99.90;;;;;;5076810;28;20044;-73
2022/04/23 01:40:36;;;;;;;21.13;13.73;;;11.10;99.90;;;;;;5111027;28;20040;-73
2022/04/23 01:43:02;;;;;;;17.73;12.40;;;11.10;99.90;;;;;;5112087;28;20058;-73
2022/04/23 01:45:27;;;;;;;18.85;12.75;;;11.10;99.90;;;;;;5093542;28;20044;-73
2022/04/23 01:47:53;;;;;;;17.33;12.00;;;11.10;99.90;;;;;;5111862;28;20027;-74
2022/04/23 01:50:18;;;;;;;18.55;13.00;;;11.10;99.90;;;;;;5093608;28;20176;-75
2022/04/23 01:52:44;;;;;;;18.17;12.57;;;11.00;99.90;;;;;;5093420;28;20184;-74
2022/04/23 01:55:10;;;;;;;21.15;13.73;;;11.00;99.90;;;;;;5111959;28;20032;-73
2022/04/23 01:57:36;;;;;;;19.45;13.90;;;11.00;99.90;;;;;;5093680;28;20044;-73
2022/04/23 02:00:05;;;;;;;17.70;12.57;;;11.00;99.90;;;;;;5093031;28;20035;-73
2022/04/23 02:02:31;;;;;;;21.27;12.80;;;11.10;99.90;;;;;;5111687;28;20070;-73
2022/04/23 02:04:56;;;;;;;18.33;12.57;;;11.00;99.90;;;;;;5093258;28;20637;-73
2022/04/23 02:07:22;;;;;;;16.65;12.15;;;11.00;99.90;;;;;;5111570;28;20046;-73
2022/04/23 02:09:47;;;;;;;16.83;12.25;;;10.90;99.90;;;;;;5092964;28;20040;-74
2022/04/23 02:12:13;;;;;;;16.83;12.73;;;11.00;99.90;;;;;;5093242;28;20100;-73
2022/04/23 02:14:38;;;;;;;18.95;12.65;;;11.00;99.90;;;;;;5093308;28;20039;-73
2022/04/23 02:17:04;;;;;;;17.33;12.45;;;10.90;99.90;;;;;;5093470;28;20067;-73
2022/04/23 02:19:29;;;;;;;18.05;12.80;;;10.90;99.90;;;;;;5111529;28;20035;-73
2022/04/23 02:21:55;;;;;;;16.67;11.18;;;10.90;99.90;;;;;;5111815;28;20546;-73
2022/04/23 02:24:21;;;;;;;19.30;13.00;;;10.80;99.90;;;;;;5095040;28;20050;-73
2022/04/23 02:26:47;;;;;;;19.40;11.90;;;10.80;99.90;;;;;;5096865;28;20044;-73
2022/04/23 02:29:12;;;;;;;18.42;12.02;;;10.70;99.90;;;;;;5095046;28;20073;-73
2022/04/23 02:31:38;;;;;;;15.80;11.80;;;10.80;99.90;;;;;;5096229;28;20197;-73
2022/04/23 02:34:03;;;;;;;17.20;11.45;;;10.70;99.90;;;;;;5082097;28;20127;-75
2022/04/23 02:36:29;;;;;;;17.85;12.35;;;10.70;99.90;;;;;;5111388;28;20153;-74
2022/04/23 02:38:55;;;;;;;16.10;11.40;;;10.70;99.90;;;;;;5111270;28;20578;-73
2022/04/23 02:41:20;;;;;;;16.00;11.52;;;10.70;99.90;;;;;;5092953;28;20392;-73
2022/04/23 02:43:46;;;;;;;17.60;12.10;;;10.70;99.90;;;;;;5111258;28;20043;-73
2022/04/23 02:46:14;;;;;;;17.33;11.50;;;10.70;99.90;;;;;;5111524;28;20399;-73
2022/04/23 02:48:40;;;;;;;16.52;12.35;;;10.70;99.90;;;;;;5110987;28;20027;-73
2022/04/23 02:51:05;;;;;;;16.23;11.63;;;10.60;99.90;;;;;;5093064;28;20731;-73
2022/04/23 02:53:31;;;;;;;20.38;11.65;;;10.60;99.90;;;;;;5114768;28;20032;-73
2022/04/23 02:55:57;;;;;;;16.73;12.20;;;10.50;99.90;;;;;;5115698;28;20032;-73
2022/04/23 02:58:25;;;;;;;16.52;11.77;;;10.50;99.90;;;;;;5115180;28;20450;-74
2022/04/23 03:00:52;;;;;;;15.05;11.18;;;10.50;99.90;;;;;;5115136;28;20039;-73
2022/04/23 03:03:18;;;;;;;16.30;10.68;;;10.50;99.90;;;;;;5115018;28;20046;-73
2022/04/23 03:05:44;;;;;;;16.98;11.38;;;10.40;99.90;;;;;;5114904;28;20475;-73
2022/04/23 03:08:11;;;;;;;18.02;10.60;;;10.40;99.90;;;;;;5096582;28;20484;-73
2022/04/23 03:10:41;;;;;;;13.32;10.52;;;10.40;99.90;;;;;;5114732;28;20036;-73
2022/04/23 03:13:07;;;;;;;14.27;10.38;;;10.40;99.90;;;;;;5114907;28;20042;-75
2022/04/23 03:15:34;;;;;;;16.08;10.63;;;10.30;99.90;;;;;;5114458;28;20043;-73
2022/04/23 03:18:12;;;;;;;13.15;10.15;;;10.30;99.90;;;;;;5114973;28;20402;-73
2022/04/23 03:20:40;;;;;;;16.33;11.02;;;10.30;99.90;;;;;;5114459;28;20146;-73
2022/04/23 03:23:06;;;;;;;17.13;10.40;;;10.20;99.90;;;;;;5114817;28;20036;-73
2022/04/23 03:25:32;;;;;;;17.08;9.98;;;10.20;99.90;;;;;;5096332;28;20518;-73
2022/04/23 03:28:00;;;;;;;15.00;11.07;;;10.20;99.90;;;;;;5114460;28;20051;-73
2022/04/23 03:30:28;;;;;;;15.93;10.75;;;10.20;99.90;;;;;;5114372;28;20107;-74
2022/04/23 03:32:53;;;;;;;15.75;11.65;;;10.10;99.90;;;;;;5114503;28;20078;-74
2022/04/23 03:35:19;;;;;;;15.98;10.63;;;10.10;99.90;;;;;;5096061;28;20124;-74
2022/04/23 03:37:45;;;;;;;15.85;10.50;;;10.10;99.90;;;;;;5114413;28;20032;-74
2022/04/23 03:40:11;;;;;;;14.60;10.60;;;10.10;99.90;;;;;;5095762;28;20042;-73
2022/04/23 03:42:38;;;;;;;19.00;10.88;;;10.10;99.90;;;;;;5114288;28;20043;-73
2022/04/23 03:45:05;;;;;;;14.73;10.13;;;10.00;99.90;;;;;;5095900;28;20067;-75
2022/04/23 03:47:31;;;;;;;15.32;10.73;;;10.00;99.90;;;;;;5095858;28;20036;-73
2022/04/23 03:49:57;;;;;;;15.63;10.57;;;10.00;99.90;;;;;;5095557;28;20050;-73
2022/04/23 03:52:23;;;;;;;15.60;10.40;;;9.90;99.90;;;;;;5095731;28;20044;-73
2022/04/23 03:54:49;;;;;;;15.77;10.52;;;9.90;99.90;;;;;;5095602;28;20456;-73
2022/04/23 03:57:14;;;;;;;21.55;10.68;;;9.90;99.90;;;;;;5114110;28;20071;-74
2022/04/23 03:59:40;;;;;;;15.98;9.82;;;9.90;99.90;;;;;;5095315;28;20052;-74
2022/04/23 04:02:06;;;;;;;14.88;9.85;;;9.80;99.90;;;;;;5113943;28;20495;-73
2022/04/23 04:04:34;;;;;;;14.82;10.38;;;9.90;99.90;;;;;;5077758;28;20526;-73
2022/04/23 04:07:00;;;;;;;15.13;10.07;;;9.80;99.90;;;;;;5095566;28;20043;-74
2022/04/23 04:09:28;;;;;;;12.30;9.75;;;9.80;99.90;;;;;;5095211;28;20055;-74
2022/04/23 04:12:02;;;;;;;15.88;10.30;;;9.80;99.90;;;;;;5095441;28;20514;-73
2022/04/23 04:14:30;;;;;;;16.08;9.93;;;9.80;99.90;;;;;;5092624;28;20043;-72
2022/04/23 04:16:56;;;;;;;13.50;9.50;;;9.80;99.90;;;;;;5110538;28;20039;-73
2022/04/23 04:19:21;;;;;;;12.82;9.13;;;9.80;99.90;;;;;;5111859;28;20510;-73
2022/04/23 04:21:47;;;;;;;15.82;9.95;;;9.80;99.90;;;;;;5113506;28;20036;-73
2022/04/23 04:24:14;;;;;;;13.35;9.68;;;9.90;99.90;;;;;;5112528;28;20091;-73
2022/04/23 04:26:46;;;;;;;12.00;9.07;;;9.90;99.90;;;;;;5112405;28;20046;-73
2022/04/23 04:29:13;;;;;;;13.18;8.90;;;9.80;99.90;;;;;;5113332;28;20071;-73
2022/04/23 04:31:47;;;;;;;12.43;8.95;;;9.90;99.90;;;;;;5094898;28;20047;-75
2022/04/23 04:34:17;;;;;;;11.88;9.13;;;9.80;99.90;;;;;;5095143;28;20441;-73
2022/04/23 04:36:43;;;;;;;11.38;8.68;;;9.80;99.90;;;;;;5095020;28;20039;-73
2022/04/23 04:39:09;;;;;;;11.50;8.30;;;9.80;99.90;;;;;;5094646;28;20043;-74
2022/04/23 04:41:35;;;;;;;11.65;8.80;;;9.80;99.90;;;;;;5094916;28;20101;-73
2022/04/23 04:44:02;;;;;;;12.25;8.57;;;9.90;99.90;;;;;;5095153;28;20039;-75
2022/04/23 04:46:28;;;;;;;10.10;8.07;;;9.80;99.90;;;;;;5094659;28;20036;-73
2022/04/23 04:48:53;;;;;;;10.93;7.85;;;9.90;99.90;;;;;;5094383;28;20522;-74
2022/04/23 04:51:19;;;;;;;13.90;9.02;;;9.80;99.90;;;;;;5094642;28;20086;-74
2022/04/23 04:53:44;;;;;;;10.68;8.68;;;9.80;99.90;;;;;;5112958;28;20678;-74
2022/04/23 04:56:10;;;;;;;17.63;8.60;;;9.80;99.90;;;;;;5094505;28;20067;-73
2022/04/23 04:58:36;;;;;;;12.05;8.50;;;9.80;99.90;;;;;;5094076;28;20092;-74
2022/04/23 05:01:02;;;;;;;11.05;7.88;;;9.80;99.90;;;;;;5094250;28;20035;-73
2022/04/23 05:03:28;;;;;;;11.05;8.27;;;9.90;99.90;;;;;;5094374;28;20050;-74
2022/04/23 05:05:53;;;;;;;15.45;7.75;;;9.90;99.90;;;;;;5112787;28;20122;-75
2022/04/23 05:08:19;;;;;;;11.07;7.80;;;9.90;99.90;;;;;;5094121;28;20047;-73
2022/04/23 05:10:45;;;;;;;9.07;8.18;;;9.90;99.90;;;;;;5094012;28;20032;-74
2022/04/23 05:13:10;;;;;;;10.93;7.93;;;10.10;99.90;;;;;;5112600;28;20539;-73
2022/04/23 05:15:37;;;;;;;9.00;7.55;;;10.10;99.90;;;;;;5112115;28;20036;-74
2022/04/23 05:18:03;;;;;;;9.40;7.78;;;10.10;99.90;;;;;;5112321;28;20046;-73
2022/04/23 05:20:29;;;;;;;11.15;8.07;;;10.20;99.90;;;;;;5112237;28;20039;-73
2022/04/23 05:22:54;;;;;;;9.95;7.85;;;10.20;99.90;;;;;;5112393;28;20396;-74
2022/04/23 05:25:20;;;;;;;8.77;7.72;;;10.30;99.90;;;;;;5094061;28;20047;-75
2022/04/23 05:27:45;;;;;;;8.75;7.55;;;10.40;99.90;;;;;;5112355;28;20442;-73
2022/04/23 05:30:11;;;;;;;9.85;8.00;;;10.50;99.90;;;;;;5111939;28;20465;-73
2022/04/23 05:32:37;;;;;;;10.20;8.13;;;10.50;99.90;;;;;;5112038;28;20046;-73
2022/04/23 05:35:02;;;;;;;12.43;8.50;;;10.60;99.90;;;;;;5077188;28;20065;-74
2022/04/23 05:37:28;;;;;;;9.43;7.57;;;10.60;99.90;;;;;;5094124;28;20039;-73
2022/04/23 05:39:53;;;;;;;9.23;7.38;;;10.70;99.90;;;;;;5093511;28;20043;-73
2022/04/23 05:42:19;;;;;;;10.45;7.40;;;10.70;99.90;;;;;;5112006;28;20039;-73
2022/04/23 05:44:44;;;;;;;9.65;7.55;;;10.70;99.90;;;;;;5111876;28;20057;-74
2022/04/23 05:47:10;;;;;;;9.65;7.22;;;10.80;99.90;;;;;;5093608;28;20464;-73
2022/04/23 05:49:38;;;;;;;10.00;7.60;;;10.80;99.90;;;;;;5111744;28;20051;-73
2022/04/23 05:52:05;;;;;;;9.23;7.57;;;11.00;99.90;;;;;;5111722;28;20589;-74
2022/04/23 05:54:30;;;;;;;9.82;8.20;;;11.00;99.90;;;;;;5111861;28;20047;-73
2022/04/23 05:56:56;;;;;;;10.55;8.10;;;11.00;99.90;;;;;;5111755;28;20626;-73
2022/04/23 05:59:25;;;;;;;9.18;8.13;;;11.10;99.90;;;;;;5092995;28;20039;-73
2022/04/23 06:01:50;;;;;;;12.07;8.75;;;11.10;99.90;;;;;;5076818;28;20036;-73
2022/04/23 06:04:16;;;;;;;11.32;8.93;;;11.10;99.90;;;;;;5111550;28;20031;-73
2022/04/23 06:06:41;;;;;;;11.32;8.00;;;11.20;99.90;;;;;;5111838;28;20045;-74
2022/04/23 06:09:07;;;;;;;11.18;8.57;;;11.30;99.90;;;;;;5111303;28;20028;-74
2022/04/23 06:11:32;;;;;;;11.25;8.13;;;11.30;99.90;;;;;;5111511;28;20195;-73
2022/04/23 06:13:58;;;;;;;11.75;8.25;;;11.30;99.90;;;;;;5111410;28;20064;-73
2022/04/23 06:16:23;;;;;;;10.82;8.50;;;11.30;99.90;;;;;;5111115;28;20169;-73
2022/04/23 06:18:49;;;;;;;13.45;9.27;;;11.30;99.90;;;;;;5111266;28;20114;-73
2022/04/23 06:21:15;;;;;;;12.40;8.20;;;11.40;99.90;;;;;;5111334;28;20052;-73
2022/04/23 06:23:40;;;;;;;10.48;8.52;;;11.30;99.90;;;;;;5111205;28;20047;-73
2022/04/23 06:26:06;;;;;;;13.30;9.82;;;11.40;99.90;;;;;;5111447;28;20036;-74
2022/04/23 06:28:32;;;;;;;12.05;9.48;;;11.40;99.90;;;;;;5110432;28;20534;-73
2022/04/23 06:30:57;;;;;;;10.30;8.45;;;11.40;99.90;;;;;;5111290;28;20067;-74
2022/04/23 06:33:23;;;;;;;12.23;9.20;;;11.50;99.90;;;;;;5111449;28;20040;-73
2022/04/23 06:35:48;;;;;;;11.95;9.07;;;11.40;99.90;;;;;;5093176;28;20047;-73
2022/04/23 06:38:14;;;;;;;12.85;9.25;;;11.50;99.90;;;;;;5111086;28;20051;-74
2022/04/23 06:40:39;;;;;;;14.98;9.80;;;11.50;99.90;;;;;;5111109;28;20044;-73
2022/04/23 06:43:05;;;;;;;15.10;9.50;;;11.50;99.90;;;;;;5111330;28;20039;-73
2022/04/23 06:45:30;;;;;;;14.02;9.80;;;11.60;99.90;;;;;;5111360;28;20399;-73
2022/04/23 06:48:04;;;;;;;12.73;8.82;;;11.60;99.90;;;;;;5092919;28;20040;-73
2022/04/23 06:50:33;;;;;;;14.30;9.63;;;11.60;99.90;;;;;;5092811;28;20051;-73
2022/04/23 06:53:03;;;;;;;10.98;9.10;;;11.80;99.90;;;;;;5092796;28;20040;-73
2022/04/23 06:55:29;;;;;;;12.40;9.73;;;11.80;99.90;;;;;;5111249;28;20036;-73
2022/04/23 06:57:55;;;;;;;11.15;8.90;;;11.90;99.90;;;;;;5111057;28;20032;-73
2022/04/23 07:00:22;;;;;;;15.95;10.10;;;11.80;99.90;;;;;;5110736;28;20067;-73
2022/04/23 07:02:49;;;;;;;14.52;10.05;;;11.90;99.90;;;;;;5092718;28;20039;-73
2022/04/23 07:05:15;;;;;;;12.80;10.15;;;11.90;99.90;;;;;;5092767;28;20044;-74
2022/04/23 07:07:40;;;;;;;14.32;10.77;;;12.00;99.90;;;;;;5092723;28;20561;-73
2022/04/23 07:10:06;;;;;;;12.40;9.63;;;12.00;99.90;;;;;;5092754;28;20127;-73
2022/04/23 07:12:33;;;;;;;12.77;10.32;;;12.10;99.90;;;;;;5092507;28;20040;-73
2022/04/23 07:14:59;;;;;;;18.13;10.02;;;12.20;99.90;;;;;;5110932;28;20595;-73
2022/04/23 07:17:26;;;;;;;13.40;9.77;;;12.20;99.90;;;;;;5110486;28;20040;-74
2022/04/23 07:19:53;;;;;;;14.65;10.27;;;12.10;99.90;;;;;;5092557;28;20390;-74
2022/04/23 07:22:19;;;;;;;14.98;9.77;;;12.30;99.90;;;;;;5111006;28;20040;-74
2022/04/23 07:24:46;;;;;;;15.38;9.65;;;12.40;99.90;;;;;;5092554;28;20067;-75
2022/04/23 07:27:11;;;;;;;15.20;10.27;;;12.40;99.90;;;;;;5110783;28;20044;-74
2022/04/23 07:29:37;;;;;;;13.05;10.25;;;12.50;99.90;;;;;;5092289;28;20548;-75
2022/04/23 07:32:04;;;;;;;15.38;10.30;;;12.50;99.90;;;;;;5092329;28;20073;-73
2022/04/23 07:37:29;;;;;;;16.55;10.00;;;12.70;99.90;;;;;;5110808;28;20127;-73
2022/04/23 07:40:05;;;;;;;16.33;10.63;;;12.70;99.90;;;;;;5112486;28;20047;-73
2022/04/23 07:42:31;;;;;;;17.15;9.85;;;12.80;99.90;;;;;;5114209;28;20036;-73
2022/04/23 07:44:57;;;;;;;14.38;9.55;;;12.90;99.90;;;;;;5096092;28;20031;-73
2022/04/23 07:47:23;;;;;;;14.68;9.77;;;13.00;99.90;;;;;;5096004;28;20043;-73
2022/04/23 07:49:49;;;;;;;17.60;10.68;;;13.10;99.90;;;;;;5095607;28;20134;-73
2022/04/23 07:52:15;;;;;;;17.88;10.77;;;13.20;99.90;;;;;;5095723;28;20047;-74
2022/04/23 07:54:41;;;;;;;15.00;9.80;;;13.20;99.90;;;;;;5095714;28;20403;-73
2022/04/23 07:57:08;;;;;;;12.68;8.95;;;13.20;99.90;;;;;;5095516;28;20042;-73
2022/04/23 07:59:37;;;;;;;15.52;8.65;;;13.30;99.80;;;;;;5113765;28;20122;-72
2022/04/23 08:02:03;;;;;;;14.15;10.05;;;13.20;98.80;;;;;;5113999;28;20047;-73
2022/04/23 08:04:29;;;;;;;14.70;9.50;;;13.40;99.90;;;;;;5095516;28;20039;-73
2022/04/23 08:06:54;;;;;;;13.23;9.55;;;13.50;99.90;;;;;;5095737;28;20055;-74
2022/04/23 08:09:20;;;;;;;15.93;9.32;;;13.60;98.50;;;;;;5113558;28;20035;-73
2022/04/23 08:11:45;;;;;;;13.23;9.00;;;13.70;97.30;;;;;;5095277;28;20084;-73
2022/04/23 08:14:11;;;;;;;14.00;9.20;;;13.80;97.20;;;;;;5095405;28;20492;-74
2022/04/23 08:16:36;;;;;;;12.30;8.77;;;13.80;96.70;;;;;;5095334;28;20422;-74
2022/04/23 08:19:02;;;;;;;12.35;8.88;;;13.80;96.10;;;;;;5095078;28;20040;-73
2022/04/23 08:21:27;;;;;;;15.38;9.00;;;13.80;94.30;;;;;;5113644;28;20388;-73
2022/04/23 08:23:53;;;;;;;13.93;8.95;;;13.80;94.70;;;;;;5113414;28;20047;-73
2022/04/23 08:26:18;;;;;;;16.13;9.00;;;13.80;95.10;;;;;;5113355;28;20555;-75
2022/04/23 08:31:28;;;;;;;14.40;9.13;;;13.70;94.10;;;;;;5113452;28;20184;-73
2022/04/23 08:34:03;;;;;;;13.05;8.85;;;13.80;94.80;;;;;;5113274;28;20126;-73
2022/04/23 08:36:30;;;;;;;15.43;8.48;;;13.90;95.60;;;;;;5113218;28;20413;-73
2022/04/23 08:38:59;;;;;;;12.82;8.98;;;14.00;95.80;;;;;;5094482;28;20040;-73
2022/04/23 08:41:29;;;;;;;16.00;9.25;;;14.10;94.20;;;;;;5113249;28;20184;-75
2022/04/23 08:44:05;;;;;;;11.63;9.45;;;14.00;93.20;;;;;;5113211;28;20051;-74
2022/04/23 08:46:40;;;;;;;14.52;10.05;;;14.10;92.70;;;;;;5113134;28;20065;-73
2022/04/23 08:49:14;;;;;;;14.82;9.02;;;14.10;93.10;;;;;;5112721;28;20050;-73
2022/04/23 08:51:43;;;;;;;15.00;9.45;;;14.20;94.60;;;;;;5094267;28;20040;-73
2022/04/23 08:54:12;;;;;;;11.23;8.50;;;14.30;93.70;;;;;;5112981;28;20031;-74
2022/04/23 08:56:43;;;;;;;11.98;8.88;;;14.50;94.40;;;;;;5112748;28;20042;-75
2022/04/23 08:59:13;;;;;;;13.63;9.65;;;14.50;92.70;;;;;;5112571;28;20043;-73
2022/04/23 09:01:40;;;;;;;16.70;9.07;;;14.40;91.40;;;;;;5112735;28;20172;-74
2022/04/23 09:04:07;;;;;;;11.63;9.05;;;14.50;91.20;;;;;;5094290;28;20058;-75
2022/04/23 09:06:38;;;;;;;15.00;9.27;;;14.40;92.00;;;;;;5112769;28;20051;-73
2022/04/23 09:09:14;;;;;;;12.45;9.45;;;14.40;93.50;;;;;;5094096;28;20044;-73
2022/04/23 09:11:42;;;;;;;14.57;9.52;;;14.60;92.70;;;;;;5094205;28;20044;-73
2022/04/23 09:14:09;;;;;;;13.55;9.20;;;14.70;90.30;;;;;;5094178;28;20120;-74
2022/04/23 09:25:13;;;;;;;15.60;9.50;;;14.70;88.70;;;;;;5112293;28;20048;-73
2022/04/23 09:27:41;;;;;;;15.38;10.20;;;14.70;90.40;;;;;;5112368;28;20085;-73
2022/04/23 09:30:07;;;;;;;12.65;9.45;;;14.80;89.30;;;;;;5111970;28;20040;-75
2022/04/23 09:32:34;;;;;;;13.63;9.38;;;14.80;89.90;;;;;;5094095;28;20437;-73
2022/04/23 09:35:12;;;;;;;12.27;8.55;;;14.90;89.60;;;;;;5112415;28;20035;-74
2022/04/23 09:40:27;;;;;;;14.90;9.65;;;15.10;84.10;;;;;;5112230;28;20047;-73
2022/04/23 09:42:56;;;;;;;14.77;9.07;;;15.20;87.20;;;;;;5114197;28;20043;-74
2022/04/23 09:45:26;;;;;;;15.45;9.27;;;15.10;88.20;;;;;;5095943;28;20043;-74
2022/04/23 09:47:52;;;;;;;15.90;10.32;;;15.20;84.30;;;;;;5095979;28;20468;-73
2022/04/23 09:50:18;;;;;;;15.65;9.68;;;15.20;79.50;;;;;;5095908;28;20044;-73
2022/04/23 09:52:45;;;;;;;10.23;8.38;;;15.20;87.40;;;;;;5113287;28;20560;-74
2022/04/23 09:55:12;;;;;;;15.35;9.70;;;15.30;88.80;;;;;;5112132;28;20103;-74
2022/04/23 09:57:38;;;;;;;16.65;9.40;;;15.20;81.60;;;;;;5093465;28;20036;-73
2022/04/23 10:00:05;;;;;;;12.20;9.38;;;15.20;81.60;;;;;;5093135;28;20047;-74
2022/04/23 10:02:32;;;;;;;14.77;10.68;;;15.20;84.40;;;;;;5093037;28;20051;-75
2022/04/23 10:05:01;;;;;;;14.55;9.93;;;15.30;81.30;;;;;;5111601;28;20031;-74
2022/04/23 10:07:29;;;;;;;18.38;9.77;;;15.10;79.60;;;;;;5093222;28;20047;-74
2022/04/23 10:09:57;;;;;;;14.25;9.40;;;15.40;87.50;;;;;;5093022;28;20096;-73
2022/04/23 10:12:23;;;;;;;16.30;9.98;;;15.30;77.90;;;;;;5111622;28;20036;-74
2022/04/23 10:14:56;;;;;;;16.10;10.57;;;15.50;85.10;;;;;;5111522;28;20108;-74
2022/04/23 10:17:24;;;;;;;14.77;9.52;;;15.40;81.80;;;;;;5093056;28;20035;-75
2022/04/23 10:19:50;;;;;;;14.15;10.35;;;15.60;84.30;;;;;;5092858;28;20048;-73
2022/04/23 10:22:41;;;;;;;14.63;9.57;;;15.50;79.00;;;;;;5093140;28;20071;-73
2022/04/23 10:25:29;;;;;;;15.18;9.43;;;15.50;78.50;;;;;;5093106;28;20096;-73
2022/04/23 10:27:57;;;;;;;16.48;11.18;;;15.60;76.30;;;;;;5092985;28;20061;-74
2022/04/23 10:30:26;;;;;;;15.57;9.75;;;15.50;73.70;;;;;;5092756;28;20097;-73
2022/04/23 10:32:51;;;;;;;15.00;9.23;;;15.60;80.80;;;;;;5076204;28;20064;-73
2022/04/23 10:35:17;;;;;;;17.83;9.85;;;15.60;76.70;;;;;;5111314;28;20036;-74
2022/04/23 10:37:43;;;;;;;12.63;9.45;;;15.70;81.70;;;;;;5093236;28;20042;-73
2022/04/23 10:40:20;;;;;;;15.70;10.05;;;16.00;76.10;;;;;;5111048;28;20039;-74
2022/04/23 10:43:04;;;;;;;16.95;8.77;;;15.90;71.50;;;;;;5111191;28;20044;-73
2022/04/23 10:45:33;;;;;;;14.45;8.90;;;15.90;68.50;;;;;;5111428;28;20065;-73
2022/04/23 10:48:24;;;;;;;13.27;9.45;;;16.00;73.30;;;;;;5111335;28;20083;-74
2022/04/23 10:51:00;;;;;;;15.80;9.20;;;16.00;68.40;;;;;;5092796;28;20048;-73
2022/04/23 10:53:37;;;;;;;12.23;8.82;;;16.10;67.90;;;;;;5111466;28;20058;-74
2022/04/23 10:56:11;;;;;;;12.35;8.68;;;16.10;68.30;;;;;;5093285;28;20365;-73
2022/04/23 10:58:41;;;;;;;14.38;8.20;;;16.00;67.40;;;;;;5092886;28;20050;-74
2022/04/23 11:01:30;;;;;;;14.18;8.82;;;16.10;67.70;;;;;;5079368;28;20076;-73
2022/04/23 11:03:59;;;;;;;12.88;8.90;;;16.00;62.80;;;;;;5097022;28;20047;-74
2022/04/23 11:12:39;;;;;;;11.77;8.45;;;16.10;59.80;;;;;;5111095;28;20044;-73
2022/04/23 11:15:15;;;;;;;20.88;9.25;;;16.30;65.50;;;;;;5114992;28;20044;-73
2022/04/23 11:17:46;;;;;;;17.02;8.73;;;16.30;61.60;;;;;;5096694;28;20118;-73
2022/04/23 11:20:11;;;;;;;14.07;8.52;;;16.40;60.00;;;;;;5096191;28;20078;-73
2022/04/23 11:22:37;;;;;;;10.88;8.40;;;16.30;59.20;;;;;;5096423;28;20468;-74
2022/04/23 11:25:04;;;;;;;12.90;8.60;;;16.30;63.60;;;;;;5114866;28;20042;-73
2022/04/23 11:27:32;;;;;;;14.18;8.55;;;16.60;62.70;;;;;;5096668;28;20445;-75
2022/04/23 11:29:59;;;;;;;15.18;9.65;;;16.50;58.70;;;;;;5096353;28;20058;-73
2022/04/23 11:32:29;;;;;;;10.82;8.20;;;16.30;58.60;;;;;;5114392;28;20052;-74
2022/04/23 11:34:59;;;;;;;13.70;8.68;;;16.60;59.00;;;;;;5096188;28;20048;-73
2022/04/23 11:37:33;;;;;;;13.43;8.60;;;16.60;61.70;;;;;;5096102;28;20075;-74
2022/04/23 11:40:05;;;;;;;11.93;9.23;;;16.70;65.30;;;;;;5114205;28;20106;-73
2022/04/23 11:42:41;;;;;;;;;;;16.40;58.40;;;;;;5079543;28;20039;-73
2022/04/23 11:45:08;;;;;;;13.00;8.40;;;16.40;59.10;;;;;;5096139;28;19986;-73
2022/04/23 11:47:34;;;;;;;11.35;8.45;;;16.50;61.80;;;;;;5095977;28;20151;-74
2022/04/23 11:50:23;;;;;;;11.80;8.00;;;16.50;57.90;;;;;;5095517;28;20504;-75
2022/04/23 11:53:03;;;;;;;15.98;8.85;;;16.60;58.20;;;;;;5095763;28;20093;-73
2022/04/23 11:55:32;;;;;;;10.75;8.40;;;16.70;55.90;;;;;;5095802;28;20048;-73
2022/04/23 11:58:02;;;;;;;15.85;8.55;;;16.60;59.00;;;;;;5078766;28;20134;-75
2022/04/23 12:00:32;;;;;;;12.60;8.13;;;16.70;59.90;;;;;;5095233;28;20036;-73
2022/04/23 12:02:57;;;;;;;10.88;7.97;;;16.70;55.90;;;;;;5096030;28;20058;-73
2022/04/23 12:05:34;;;;;;;11.10;8.15;;;16.80;58.20;;;;;;5113824;28;20039;-73
2022/04/23 12:08:00;;;;;;;10.57;8.05;;;16.80;55.50;;;;;;5113916;28;20035;-73
2022/04/23 12:10:30;;;;;;;8.63;7.72;;;16.60;56.00;;;;;;5113830;28;20484;-73
2022/04/23 12:13:00;;;;;;;14.30;7.95;;;16.70;55.80;;;;;;5113719;28;20039;-73
2022/04/23 12:15:26;;;;;;;8.05;6.97;;;16.70;56.20;;;;;;5113467;28;20387;-73
2022/04/23 12:17:55;;;;;;;10.68;8.55;;;16.80;55.00;;;;;;5095615;28;20111;-73
2022/04/23 12:20:24;;;;;;;7.60;5.93;;;16.90;53.30;;;;;;5113460;28;20051;-75
2022/04/23 12:23:19;;;;;;;10.88;6.53;;;17.10;51.40;;;;;;5113621;28;20078;-73
2022/04/23 12:25:44;;;;;;;9.00;6.38;;;17.10;50.60;;;;;;5111140;28;20093;-72
2022/04/23 12:42:28;;;;;;;10.15;6.13;;;17.00;49.80;;;;;;5113155;28;20050;-73
2022/04/23 12:44:53;;;;;;;11.55;5.90;;;17.00;49.50;;;;;;5113236;28;20062;-74
2022/04/23 12:47:35;;;;;;;10.13;5.75;;;17.30;51.00;;;;;;5113254;28;20040;-74
2022/04/23 12:50:06;;;;;;;6.35;5.70;;;17.30;49.80;;;;;;5112867;28;20039;-74
2022/04/23 12:52:44;;;;;;;16.88;6.45;;;17.40;48.30;;;;;;5112909;28;20075;-74
2022/04/23 12:55:32;;;;;;;9.85;6.60;;;17.30;47.30;;;;;;5094565;28;20499;-73
2022/04/23 12:58:04;;;;;;;8.35;6.28;;;17.10;47.10;;;;;;5112959;28;20471;-74
2022/04/23 13:00:31;;;;;;;8.45;6.05;;;17.10;47.00;;;;;;5112520;28;20580;-74
2022/04/23 13:03:00;;;;;;;8.07;6.13;;;17.10;46.60;;;;;;5112754;28;20040;-74
2022/04/23 13:05:27;;;;;;;11.77;5.85;;;17.10;46.50;;;;;;5094598;28;20157;-73
2022/04/23 13:10:37;;;;;;;13.82;5.28;;;17.40;47.80;;;;;;5093983;28;20052;-73
2022/04/23 13:13:06;;;;;;;11.25;5.50;;;17.30;45.20;;;;;;5112642;28;20372;-73
2022/04/23 13:15:34;;;;;;;19.05;5.80;;;17.40;46.50;;;;;;5093515;28;20063;-75
2022/04/23 13:18:00;;;;;;;8.15;5.22;;;17.40;47.50;;;;;;5094307;28;20047;-74